Time;durP1;ratioP1;P1;durP2;ratioP2;P2;SDS_P1;SDS_P2;PMS_P1;PMS_P2;Temp;Humidity;BMP_temperature;BMP_pressure;BME280_temperature;BME280_humidity;BME280_pressure;Samples;Min_cycle;Max_cycle;Signal;HPM_P1;HPM_P2
2022/06/17 00:00:40;;;;;;;4.50;4.03;;;;;;;10.79;86.68;102372.69;2096776;28;22368;-70
2022/06/17 00:01:42;;;;;;;8.35;4.22;;;;;;;10.79;87.00;102364.66;2096805;28;28621;-70
2022/06/17 00:02:44;;;;;;;7.07;3.95;;;;;;;10.79;87.09;102360.19;2095863;28;20862;-71
2022/06/17 00:03:48;;;;;;;5.40;3.63;;;;;;;10.78;87.26;102352.16;2087478;28;34353;-71
2022/06/17 00:04:50;;;;;;;7.30;3.90;;;;;;;10.80;87.24;102342.31;2096347;28;20030;-71
2022/06/17 00:05:56;;;;;;;6.25;3.90;;;;;;;10.85;87.88;102344.09;2096536;28;23818;-70
2022/06/17 00:07:13;;;;;;;5.05;3.90;;;;;;;10.92;88.50;102342.31;2097154;28;20841;-70
2022/06/17 00:08:24;;;;;;;3.78;3.33;;;;;;;10.92;87.53;102341.41;2096027;28;20037;-69
2022/06/17 00:09:30;;;;;;;8.80;3.80;;;;;;;10.89;87.39;102350.34;2090819;28;30748;-69
2022/06/17 00:10:32;;;;;;;5.32;3.70;;;;;;;10.88;86.98;102364.66;2089884;28;27984;-71
2022/06/17 00:11:38;;;;;;;5.18;3.80;;;;;;;10.87;86.96;102355.72;2096350;28;21936;-70
2022/06/17 00:12:40;;;;;;;6.63;4.00;;;;;;;10.84;87.32;102366.44;2097207;28;20118;-70
2022/06/17 00:13:42;;;;;;;6.60;4.43;;;;;;;10.82;87.31;102365.56;2096792;28;20357;-69
2022/06/17 00:16:12;;;;;;;5.88;3.63;;;;;;;10.80;87.58;102369.09;2097057;28;20896;-70
2022/06/17 00:17:14;;;;;;;;;;;;;;;10.76;87.26;102361.97;2096469;28;22063;-70
2022/06/17 00:18:17;;;;;;;4.88;3.78;;;;;;;10.73;87.18;102353.94;2095509;28;36981;-70
2022/06/17 00:19:20;;;;;;;6.90;4.03;;;;;;;10.72;87.08;102354.84;2096052;28;38364;-70
2022/06/17 00:20:24;;;;;;;6.07;4.00;;;;;;;10.67;87.17;102361.06;2096138;28;39707;-71
2022/06/17 00:21:33;;;;;;;4.20;3.67;;;;;;;10.64;87.53;102363.78;2096567;28;20935;-70
2022/06/17 00:22:40;;;;;;;5.07;4.30;;;;;;;10.59;87.35;102360.22;2096645;28;23488;-71
2022/06/17 00:23:42;;;;;;;5.00;4.50;;;;;;;10.58;88.07;102358.41;2087133;28;21197;-69
2022/06/17 00:24:44;;;;;;;8.18;5.43;;;;;;;10.57;88.00;102361.06;2088574;28;24379;-69
2022/06/17 00:25:49;;;;;;;6.63;5.15;;;;;;;10.55;88.20;102361.09;2087767;28;20045;-70
2022/06/17 00:26:55;;;;;;;6.75;5.50;;;;;;;10.53;87.91;102364.66;2088761;28;20138;-70
2022/06/17 00:27:57;;;;;;;6.95;5.72;;;;;;;10.53;88.02;102364.66;2097356;28;20044;-70
2022/06/17 00:28:59;;;;;;;8.35;5.55;;;;;;;10.50;87.94;102370.91;2096666;28;20083;-71
2022/06/17 00:30:01;;;;;;;8.70;6.40;;;;;;;10.47;88.04;102362.88;2104615;28;20191;-70
2022/06/17 00:31:05;;;;;;;8.50;6.30;;;;;;;10.47;88.59;102363.75;2095641;28;24755;-69
2022/06/17 00:32:10;;;;;;;7.22;5.90;;;;;;;10.47;88.08;102365.56;2096284;28;20044;-71
2022/06/17 00:33:15;;;;;;;7.63;6.25;;;;;;;10.47;87.99;102368.22;2096699;28;20126;-71
2022/06/17 00:34:17;;;;;;;7.43;5.70;;;;;;;10.44;88.05;102366.44;2096646;28;20144;-69
2022/06/17 00:35:19;;;;;;;7.13;6.40;;;;;;;10.45;88.38;102367.34;2096658;28;20037;-71
2022/06/17 00:36:21;;;;;;;8.95;6.40;;;;;;;10.44;88.84;102369.09;2087747;28;20123;-71
2022/06/17 00:37:23;;;;;;;8.88;6.63;;;;;;;10.43;88.79;102370.00;2096431;28;20088;-71
2022/06/17 00:38:31;;;;;;;9.00;7.15;;;;;;;10.44;88.34;102365.53;2096949;28;20037;-71
2022/06/17 00:39:35;;;;;;;7.97;6.38;;;;;;;10.45;88.80;102367.34;2087146;28;20164;-71
2022/06/17 00:40:39;;;;;;;10.77;7.60;;;;;;;10.43;89.09;102370.00;2089200;28;20046;-71
2022/06/17 00:41:45;;;;;;;7.25;6.55;;;;;;;10.44;88.31;102370.91;2096412;28;28706;-70
2022/06/17 00:42:48;;;;;;;7.20;6.40;;;;;;;10.41;88.54;102370.88;2096251;28;20119;-69
2022/06/17 00:43:50;;;;;;;8.18;6.57;;;;;;;10.40;88.35;102369.13;2095746;28;23315;-70
2022/06/17 00:45:49;;;;;;;10.60;6.90;;;;;;;10.39;88.06;102370.91;2096078;28;23452;-70
2022/06/17 00:47:15;;;;;;;7.65;6.65;;;;;;;10.37;88.85;102367.31;2095691;28;20053;-70
2022/06/17 00:48:27;;;;;;;9.73;6.57;;;;;;;10.39;89.12;102367.31;2087723;28;24273;-69
2022/06/17 00:49:56;;;;;;;8.57;6.45;;;;;;;10.34;88.68;102371.78;2093903;28;20092;-70
2022/06/17 00:51:23;;;;;;;12.82;7.22;;;;;;;10.28;88.55;102373.53;2096207;28;20045;-71
2022/06/17 00:52:36;;;;;;;7.88;6.60;;;;;;;10.26;88.69;102380.66;2095453;28;20848;-70
2022/06/17 00:53:53;;;;;;;7.57;6.80;;;;;;;10.23;88.57;102382.44;2097875;28;20037;-70
2022/06/17 00:55:24;;;;;;;10.73;7.32;;;;;;;10.22;89.18;102384.22;2092306;28;20178;-71
2022/06/17 00:56:37;;;;;;;6.93;6.22;;;;;;;10.21;89.54;102387.81;2090033;28;20872;-71
2022/06/17 00:57:41;;;;;;;10.88;7.18;;;;;;;10.19;88.96;102381.53;2093643;28;20935;-71
2022/06/17 00:59:13;;;;;;;8.48;7.43;;;;;;;10.17;88.88;102388.66;2088573;28;20104;-70
2022/06/17 01:00:25;;;;;;;10.25;7.47;;;;;;;10.14;89.65;102380.66;2092426;28;20045;-71
2022/06/17 01:02:02;;;;;;;11.30;7.50;;;;;;;10.11;89.12;102386.00;2089284;28;20549;-71
2022/06/17 01:03:16;;;;;;;9.38;6.82;;;;;;;10.11;89.18;102377.97;2101184;28;20881;-70
2022/06/17 01:04:25;;;;;;;8.95;6.45;;;;;;;10.06;89.05;102382.41;2099018;28;25268;-70
2022/06/17 01:05:40;;;;;;;10.35;7.22;;;;;;;10.04;88.80;102377.06;2096007;28;20045;-70
2022/06/17 01:06:49;;;;;;;11.05;7.55;;;;;;;10.07;89.84;102370.84;2090764;28;21044;-70
2022/06/17 01:08:04;;;;;;;7.97;7.07;;;;;;;10.07;89.41;102370.84;2081823;28;20082;-70
2022/06/17 01:10:47;;;;;;;9.07;7.70;;;;;;;10.06;89.55;102371.72;2095743;28;20189;-70
2022/06/17 01:11:51;;;;;;;10.43;7.68;;;;;;;10.03;89.47;102369.94;2097360;28;20119;-70
2022/06/17 01:13:05;;;;;;;7.53;6.72;;;;;;;10.02;89.51;102370.81;2087546;28;20053;-70
2022/06/17 01:14:14;;;;;;;11.88;8.13;;;;;;;9.99;89.06;102378.81;2083503;28;20491;-70
2022/06/17 01:15:23;;;;;;;8.73;7.45;;;;;;;9.98;89.90;102378.81;2088646;28;20049;-70
2022/06/17 01:16:36;;;;;;;8.35;7.25;;;;;;;9.97;90.02;102379.72;2097094;28;20052;-71
2022/06/17 01:18:02;;;;;;;9.25;8.23;;;;;;;9.97;90.14;102380.59;2096073;28;20049;-69
2022/06/17 01:19:40;;;;;;;10.35;8.85;;;;;;;9.96;89.63;102384.19;2096197;28;20047;-71
2022/06/17 01:20:55;;;;;;;9.50;8.32;;;;;;;9.95;90.14;102385.06;2103528;28;20045;-70
2022/06/17 01:22:28;;;;;;;10.93;8.45;;;;;;;9.94;90.23;102380.59;2079392;28;20907;-70
2022/06/17 01:23:38;;;;;;;11.85;8.38;;;;;;;9.93;90.16;102384.16;2085377;28;20125;-70
2022/06/17 01:24:43;;;;;;;10.90;9.40;;;;;;;9.93;90.37;102382.38;2096505;28;20045;-70
2022/06/17 01:25:45;;;;;;;10.48;8.90;;;;;;;9.94;89.95;102378.81;2095530;28;20160;-71
2022/06/17 01:26:48;;;;;;;12.48;10.18;;;;;;;9.93;89.82;102389.50;2087697;28;20042;-71
2022/06/17 01:27:58;;;;;;;11.40;8.85;;;;;;;9.94;90.54;102385.94;2095654;28;20045;-71
2022/06/17 01:29:00;;;;;;;12.00;9.38;;;;;;;9.91;90.71;102381.47;2096212;28;20041;-71
2022/06/17 01:30:05;;;;;;;14.70;10.32;;;;;;;9.90;90.51;102381.47;2087989;28;20123;-71
2022/06/17 01:31:08;;;;;;;9.77;8.30;;;;;;;9.91;90.61;102377.91;2088143;28;20041;-70
2022/06/17 01:32:12;;;;;;;12.60;9.15;;;;;;;9.91;90.28;102383.28;2079458;28;20054;-71
2022/06/17 01:33:38;;;;;;;13.65;11.35;;;;;;;9.90;90.21;102390.38;2071989;28;20899;-71
2022/06/17 01:34:40;;;;;;;14.65;12.18;;;;;;;9.89;91.02;102387.72;2094129;28;20187;-71
2022/06/17 01:36:19;;;;;;;15.00;11.43;;;;;;;9.86;90.63;102383.25;2095953;28;20548;-70
2022/06/17 01:37:22;;;;;;;13.30;10.50;;;;;;;9.86;90.64;102383.25;2092702;28;20076;-69
2022/06/17 01:38:26;;;;;;;12.10;10.45;;;;;;;9.85;91.01;102386.81;2087579;28;20168;-68
2022/06/17 01:39:27;;;;;;;11.52;9.85;;;;;;;9.84;91.30;102378.78;2088148;28;20087;-71
2022/06/17 01:40:29;;;;;;;10.93;9.82;;;;;;;9.86;90.74;102379.69;2086956;28;20849;-71
2022/06/17 01:41:35;;;;;;;12.35;10.52;;;;;;;9.85;90.56;102381.47;2088399;28;20044;-71
2022/06/17 01:42:39;;;;;;;11.98;10.15;;;;;;;9.84;91.39;102385.03;2104241;28;20917;-71
2022/06/17 01:44:05;;;;;;;15.55;10.57;;;;;;;9.83;91.46;102377.88;2103956;28;20909;-71
2022/06/17 01:45:10;;;;;;;11.05;9.02;;;;;;;9.81;91.04;102371.63;2090239;28;20029;-70
2022/06/17 01:46:19;;;;;;;11.48;9.50;;;;;;;9.80;90.83;102383.25;2079738;28;20041;-71
2022/06/17 01:47:26;;;;;;;11.88;9.55;;;;;;;9.83;91.49;102377.88;2089637;28;21020;-71
2022/06/17 01:48:35;;;;;;;12.20;9.65;;;;;;;9.84;91.62;102378.78;2088044;28;20049;-71
2022/06/17 01:49:45;;;;;;;16.10;10.60;;;;;;;9.86;91.88;102374.34;2073894;28;20089;-71
2022/06/17 01:50:54;;;;;;;10.52;8.82;;;;;;;9.82;91.25;102370.75;2091308;28;20131;-71
2022/06/17 01:52:16;;;;;;;9.10;8.20;;;;;;;9.78;91.61;102374.31;2087320;28;20152;-71
2022/06/17 01:53:27;;;;;;;9.95;8.70;;;;;;;9.79;90.92;102377.88;2093979;28;20182;-71
2022/06/17 01:54:59;;;;;;;11.95;8.18;;;;;;;9.75;91.45;102379.66;2087586;28;20916;-71
2022/06/17 01:56:09;;;;;;;12.80;10.50;;;;;;;9.72;91.79;102380.50;2072260;28;20046;-71
2022/06/17 01:57:16;;;;;;;14.43;11.52;;;;;;;9.71;91.64;102377.84;2082151;28;20883;-71
2022/06/17 01:58:26;;;;;;;15.75;13.10;;;;;;;9.71;91.59;102376.06;2078299;28;20048;-71
2022/06/17 01:59:41;;;;;;;15.65;13.32;;;;;;;9.72;91.92;102372.47;2074289;28;20128;-71
2022/06/17 02:00:43;;;;;;;14.43;12.07;;;;;;;9.71;91.51;102377.84;2096632;28;20126;-71
2022/06/17 02:01:50;;;;;;;19.17;12.85;;;;;;;9.70;91.53;102376.94;2095561;28;20894;-71
2022/06/17 02:03:07;;;;;;;17.27;13.38;;;;;;;9.74;92.18;102378.75;2096539;28;20049;-71
2022/06/17 02:04:19;;;;;;;13.30;11.90;;;;;;;9.71;91.82;102376.06;2104538;28;20110;-71
2022/06/17 02:05:24;;;;;;;13.32;11.10;;;;;;;9.72;92.22;102379.63;2095208;28;20091;-71
2022/06/17 02:06:41;;;;;;;13.13;11.32;;;;;;;9.74;92.01;102380.53;2088956;28;20033;-71
2022/06/17 02:07:58;;;;;;;15.05;12.70;;;;;;;9.75;92.32;102383.22;2089867;28;20042;-70
2022/06/17 02:09:02;;;;;;;14.57;13.02;;;;;;;9.77;92.77;102375.19;2096228;28;20096;-71
2022/06/17 02:10:07;;;;;;;15.90;12.93;;;;;;;9.80;92.44;102375.22;2097584;28;20890;-71
2022/06/17 02:11:11;;;;;;;15.70;13.35;;;;;;;9.82;92.53;102368.06;2103334;28;20165;-71
2022/06/17 02:12:19;;;;;;;16.95;13.52;;;;;;;9.84;92.60;102366.28;2087476;28;20046;-71
2022/06/17 02:13:31;;;;;;;;;;;;;;;9.82;92.38;102375.22;2091600;28;20093;-71
2022/06/17 02:14:48;;;;;;;14.80;13.07;;;;;;;9.80;92.42;102375.22;2104330;28;19982;-71
2022/06/17 02:16:16;;;;;;;15.57;11.10;;;;;;;9.79;93.00;102378.75;2070202;28;20043;-70
2022/06/17 02:17:39;;;;;;;12.52;11.32;;;;;;;9.74;92.05;102376.09;2093022;28;20258;-71
2022/06/17 02:18:57;;;;;;;13.05;11.75;;;;;;;9.70;92.07;102374.28;2090516;28;20802;-72
2022/06/17 02:20:01;;;;;;;12.75;11.45;;;;;;;9.65;92.79;102380.50;2094721;28;20067;-71
2022/06/17 02:21:13;;;;;;;17.42;12.40;;;;;;;9.61;92.93;102378.69;2078817;28;20100;-71
2022/06/17 02:22:25;;;;;;;12.25;10.95;;;;;;;9.59;92.42;102383.16;2072791;28;20120;-71
2022/06/17 02:23:32;;;;;;;15.25;12.35;;;;;;;9.53;93.47;102381.34;2075098;28;20073;-71
2022/06/17 02:24:36;;;;;;;14.60;12.65;;;;;;;9.51;93.48;102380.41;2079316;28;20069;-71
2022/06/17 02:25:48;;;;;;;10.60;9.60;;;;;;;9.49;93.49;102377.75;2083144;28;20049;-71
2022/06/17 02:26:50;;;;;;;14.05;12.57;;;;;;;9.45;93.13;102375.94;2088525;28;35491;-71
2022/06/17 02:27:57;;;;;;;16.13;12.80;;;;;;;9.44;93.85;102378.59;2087202;28;20053;-71
2022/06/17 02:29:09;;;;;;;18.08;14.50;;;;;;;9.47;93.98;102382.19;2087636;28;20037;-71
2022/06/17 02:30:12;;;;;;;;;;;;;;;9.49;94.01;102380.44;2081891;28;28210;-71
2022/06/17 02:31:18;;;;;;;16.27;13.73;;;;;;;9.50;94.43;102384.88;2095539;28;20083;-71
2022/06/17 02:32:21;;;;;;;13.77;12.38;;;;;;;9.50;94.18;102376.88;2104722;28;20032;-71
2022/06/17 02:33:26;;;;;;;16.45;13.90;;;;;;;9.52;94.72;102372.41;2097307;28;20025;-71
2022/06/17 02:34:30;;;;;;;16.00;13.45;;;;;;;9.55;95.42;102379.56;2081198;28;20042;-72
2022/06/17 02:35:52;;;;;;;13.55;12.05;;;;;;;9.55;94.63;102375.09;2088193;28;20124;-71
2022/06/17 02:37:09;;;;;;;13.77;12.38;;;;;;;9.56;94.83;102378.66;2083154;28;20212;-71
2022/06/17 02:38:19;;;;;;;16.40;13.27;;;;;;;9.53;94.89;102371.53;2094478;28;20823;-71
2022/06/17 02:39:21;;;;;;;;;;;;;;;9.55;95.35;102376.91;2097380;28;20175;-71
2022/06/17 02:40:40;;;;;;;16.20;13.00;;;;;;;9.55;95.05;102371.56;2096530;28;20898;-71
2022/06/17 02:41:45;;;;;;;16.65;13.60;;;;;;;9.53;94.45;102384.03;2088667;28;20038;-71
2022/06/17 02:42:48;;;;;;;12.20;11.00;;;;;;;9.50;94.39;102379.53;2073930;28;20207;-71
2022/06/17 02:44:06;;;;;;;18.55;13.90;;;;;;;9.47;94.08;102383.97;2072801;28;20082;-71
2022/06/17 02:45:22;;;;;;;15.00;13.50;;;;;;;9.46;94.50;102377.75;2074516;28;20037;-71
2022/06/17 02:46:40;;;;;;;12.77;11.48;;;;;;;9.47;94.42;102379.50;2087698;28;26051;-71
2022/06/17 02:47:43;;;;;;;14.18;12.02;;;;;;;9.43;94.39;102372.38;2102475;28;20925;-71
2022/06/17 02:49:20;;;;;;;17.10;13.30;;;;;;;9.46;94.44;102371.50;2105064;28;20160;-71
2022/06/17 02:50:26;;;;;;;14.23;12.50;;;;;;;9.43;94.86;102372.38;2071505;28;20817;-71
2022/06/17 02:51:33;;;;;;;11.93;10.30;;;;;;;9.42;94.71;102365.25;2089275;28;20045;-71
2022/06/17 02:52:39;;;;;;;16.95;12.90;;;;;;;9.45;94.74;102362.56;2087795;28;20037;-71
2022/06/17 02:53:42;;;;;;;13.98;12.50;;;;;;;9.47;95.00;102370.59;2090941;28;20046;-71
2022/06/17 02:54:54;;;;;;;16.33;14.13;;;;;;;9.46;94.31;102368.84;2105295;28;20166;-71
2022/06/17 02:56:24;;;;;;;16.17;13.43;;;;;;;9.45;94.86;102367.91;2098758;28;20833;-71
2022/06/17 02:57:30;;;;;;;16.38;13.25;;;;;;;9.46;94.42;102367.06;2104820;28;20975;-71
2022/06/17 02:59:05;;;;;;;15.48;13.27;;;;;;;9.47;95.22;102362.59;2086587;28;20049;-71
2022/06/17 03:00:20;;;;;;;15.68;12.68;;;;;;;9.46;94.20;102359.03;2085529;28;20049;-71
2022/06/17 03:01:27;;;;;;;12.55;11.25;;;;;;;9.45;94.35;102354.56;2086298;28;20045;-71
2022/06/17 03:03:01;;;;;;;15.57;12.85;;;;;;;9.54;94.56;102362.63;2083076;28;20050;-71
2022/06/17 03:04:14;;;;;;;15.48;12.82;;;;;;;9.53;95.04;102355.50;2066527;28;20894;-71
2022/06/17 03:05:27;;;;;;;18.05;15.82;;;;;;;9.59;95.00;102356.41;2076783;28;20045;-71
2022/06/17 03:06:38;;;;;;;16.80;13.95;;;;;;;9.60;94.79;102356.44;2083039;28;20046;-71
2022/06/17 03:07:44;;;;;;;18.42;14.32;;;;;;;9.62;94.61;102360.00;2080949;28;20096;-71
2022/06/17 03:08:54;;;;;;;13.68;11.90;;;;;;;9.66;94.95;102355.56;2080852;28;20185;-71
2022/06/17 03:09:57;;;;;;;13.50;11.52;;;;;;;9.65;94.72;102349.28;2081941;28;20216;-71
2022/06/17 03:11:01;;;;;;;13.65;11.98;;;;;;;9.65;94.24;102356.41;2096961;28;20168;-71
2022/06/17 03:12:14;;;;;;;18.08;14.70;;;;;;;9.67;93.97;102360.00;2096776;28;20297;-72
2022/06/17 03:13:39;;;;;;;14.35;12.20;;;;;;;9.69;93.76;102358.22;2089225;28;20855;-71
2022/06/17 03:15:03;;;;;;;17.80;12.70;;;;;;;9.68;93.48;102359.13;2091503;28;20083;-71
2022/06/17 03:16:12;;;;;;;14.07;11.55;;;;;;;9.69;93.96;102358.22;2083490;28;20843;-71
2022/06/17 03:17:20;;;;;;;14.68;13.20;;;;;;;9.71;93.31;102354.66;2091446;28;20929;-71
2022/06/17 03:18:26;;;;;;;14.40;12.85;;;;;;;9.74;94.14;102348.44;2096651;28;21072;-71
2022/06/17 03:19:33;;;;;;;13.25;11.85;;;;;;;9.75;93.47;102348.44;2089229;28;20116;-71
2022/06/17 03:20:37;;;;;;;14.25;11.88;;;;;;;9.77;93.08;102348.44;2097294;28;21731;-71
2022/06/17 03:21:39;;;;;;;15.15;11.68;;;;;;;9.79;92.89;102357.38;2097220;28;21009;-71
2022/06/17 03:22:44;;;;;;;15.55;12.90;;;;;;;9.81;92.69;102357.38;2096497;28;20057;-71
2022/06/17 03:23:54;;;;;;;15.25;12.57;;;;;;;9.82;93.09;102360.06;2104190;28;21200;-71
2022/06/17 03:25:09;;;;;;;17.35;14.18;;;;;;;9.85;92.97;102352.06;2103990;28;20186;-72
2022/06/17 03:26:16;;;;;;;15.38;12.68;;;;;;;9.89;93.04;102355.63;2088197;28;20045;-71
2022/06/17 03:27:31;;;;;;;14.63;12.95;;;;;;;9.96;93.24;102352.06;2082545;28;20041;-71
2022/06/17 03:28:40;;;;;;;17.33;14.55;;;;;;;10.10;92.89;102357.44;2090179;28;20034;-71
2022/06/17 03:29:45;;;;;;;16.25;13.73;;;;;;;10.17;92.87;102359.22;2089337;28;20220;-71
2022/06/17 03:31:12;;;;;;;14.90;11.80;;;;;;;10.25;91.96;102357.47;2090026;28;20478;-71
2022/06/17 03:32:25;;;;;;;14.55;12.90;;;;;;;10.28;92.04;102356.56;2097673;28;21037;-71
2022/06/17 03:33:34;;;;;;;;;;;;;;;10.28;91.30;102360.16;2088734;28;20751;-71
2022/06/17 03:34:43;;;;;;;14.85;11.98;;;;;;;10.30;91.18;102347.66;2091155;28;19909;-71
2022/06/17 03:35:49;;;;;;;14.18;12.60;;;;;;;10.31;91.25;102354.81;2088097;28;20278;-71
2022/06/17 03:37:06;;;;;;;18.10;13.10;;;;;;;10.35;91.22;102361.06;2074826;28;20042;-71
2022/06/17 03:38:52;;;;;;;15.50;12.50;;;;;;;10.39;90.58;102360.22;2084996;28;20423;-71
2022/06/17 03:40:13;;;;;;;13.32;11.82;;;;;;;10.37;91.02;102363.75;2094670;28;20821;-71
2022/06/17 03:41:42;;;;;;;13.48;11.73;;;;;;;10.32;90.36;102366.44;2091054;28;20074;-71
2022/06/17 03:43:11;;;;;;;13.05;11.27;;;;;;;10.29;90.44;102378.00;2100463;28;20174;-71
2022/06/17 03:44:28;;;;;;;15.68;12.85;;;;;;;10.28;90.85;102370.88;2097017;28;21086;-71
2022/06/17 03:45:44;;;;;;;13.55;12.13;;;;;;;10.31;90.71;102372.69;2089604;28;21048;-71
2022/06/17 03:46:59;;;;;;;11.70;10.48;;;;;;;10.30;90.55;102365.50;2096232;28;20041;-71
2022/06/17 03:48:32;;;;;;;13.50;11.63;;;;;;;10.33;91.15;102365.53;2082327;28;20058;-71
2022/06/17 03:49:43;;;;;;;11.68;10.45;;;;;;;10.37;90.74;102370.00;2093583;28;20091;-71
2022/06/17 03:50:49;;;;;;;13.13;11.80;;;;;;;10.39;90.13;102364.63;2093052;28;20041;-71
2022/06/17 03:52:02;;;;;;;15.55;12.65;;;;;;;10.41;90.13;102362.84;2087770;28;20383;-71
2022/06/17 03:53:23;;;;;;;11.15;10.15;;;;;;;10.43;90.07;102366.44;2089658;28;20041;-71
2022/06/17 03:54:26;;;;;;;14.85;12.50;;;;;;;10.48;90.33;102367.31;2096777;28;20045;-71
2022/06/17 03:55:30;;;;;;;13.38;11.98;;;;;;;10.52;90.40;102368.25;2096685;28;20143;-71
2022/06/17 03:56:41;;;;;;;13.70;12.30;;;;;;;10.56;90.38;102370.91;2079911;28;20807;-71
2022/06/17 03:57:52;;;;;;;12.73;11.40;;;;;;;10.62;90.01;102367.34;2075348;28;20895;-71
2022/06/17 03:59:14;;;;;;;16.08;11.88;;;;;;;10.70;89.76;102369.13;2084833;28;20061;-71
2022/06/17 04:00:49;;;;;;;14.65;12.25;;;;;;;10.82;89.93;102375.34;2098711;28;20092;-71
2022/06/17 04:02:09;;;;;;;13.48;10.98;;;;;;;10.98;88.71;102366.44;2100944;28;21028;-71
2022/06/17 04:03:20;;;;;;;12.10;10.82;;;;;;;11.12;88.55;102371.75;2104964;28;21974;-71
2022/06/17 04:04:34;;;;;;;11.48;9.80;;;;;;;11.24;88.08;102365.47;2095892;28;20036;-71
2022/06/17 04:05:38;;;;;;;17.75;11.45;;;;;;;11.39;87.30;102365.41;2097397;28;20446;-70
2022/06/17 04:06:44;;;;;;;13.68;10.88;;;;;;;11.61;86.81;102362.63;2096488;28;20224;-70
2022/06/17 04:07:49;;;;;;;13.23;10.50;;;;;;;11.91;85.42;102363.44;2097391;28;20158;-70
2022/06/17 04:08:58;;;;;;;11.43;10.10;;;;;;;12.24;84.95;102365.03;2095364;28;20045;-72
2022/06/17 04:10:04;;;;;;;12.70;10.05;;;;;;;12.70;82.75;102358.38;2097426;28;20044;-71
2022/06/17 04:11:09;;;;;;;11.20;9.80;;;;;;;13.14;80.83;102355.25;2103627;28;20925;-70
2022/06/17 04:12:12;;;;;;;10.07;9.07;;;;;;;13.52;79.72;102355.75;2096444;28;20945;-70
2022/06/17 04:13:37;;;;;;;11.25;9.30;;;;;;;13.84;76.82;102358.03;2093933;28;20918;-70
2022/06/17 04:15:01;;;;;;;10.65;8.38;;;;;;;14.24;75.87;102349.34;2096006;28;20041;-71
2022/06/17 04:16:21;;;;;;;10.98;8.13;;;;;;;14.71;73.99;102357.59;2091576;28;20044;-70
2022/06/17 04:17:54;;;;;;;10.30;7.50;;;;;;;15.20;70.50;102348.59;2082334;28;20234;-71
2022/06/17 04:19:15;;;;;;;8.98;7.85;;;;;;;15.75;69.68;102343.00;2081778;28;20060;-71
2022/06/17 04:20:55;;;;;;;8.25;7.00;;;;;;;16.37;67.38;102345.16;2091622;28;20079;-71
2022/06/17 04:22:25;;;;;;;7.80;6.90;;;;;;;16.91;65.69;102344.69;2079473;28;20045;-71
2022/06/17 04:23:47;;;;;;;8.52;6.45;;;;;;;17.39;64.25;102335.25;2093613;28;20037;-71
2022/06/17 04:25:16;;;;;;;13.18;6.88;;;;;;;18.13;61.73;102330.31;2095038;28;20060;-71
2022/06/17 04:26:31;;;;;;;7.35;6.13;;;;;;;18.55;59.15;102337.94;2096204;28;20127;-71
2022/06/17 04:29:07;;;;;;;8.00;5.55;;;;;;;19.62;54.98;102329.59;2096825;28;20893;-72
2022/06/17 04:30:21;;;;;;;7.75;6.05;;;;;;;19.80;54.07;102330.72;2087218;28;20038;-70
2022/06/17 04:31:28;;;;;;;6.95;5.32;;;;;;;20.35;53.12;102324.88;2082291;28;20045;-71
2022/06/17 04:32:35;;;;;;;10.40;5.88;;;;;;;20.76;52.90;102317.69;2092170;28;20072;-71
2022/06/17 04:33:45;;;;;;;7.60;5.68;;;;;;;20.91;53.07;102323.41;2087772;28;20034;-69
2022/06/17 04:34:50;;;;;;;6.80;5.80;;;;;;;21.08;52.04;102322.66;2088781;28;20226;-71
2022/06/17 04:36:12;;;;;;;6.00;5.40;;;;;;;21.27;48.34;102326.31;2079891;28;20982;-71
2022/06/17 04:37:20;;;;;;;7.47;5.50;;;;;;;21.56;49.24;102321.38;2082351;28;20081;-72
2022/06/17 04:39:16;;;;;;;6.10;5.50;;;;;;;21.20;48.69;102324.81;2083304;28;21017;-70
2022/06/17 04:40:47;;;;;;;7.13;5.13;;;;;;;22.22;47.20;102325.47;2095496;28;20119;-72
2022/06/17 04:42:04;;;;;;;6.15;4.97;;;;;;;22.57;46.82;102331.00;2087787;28;20127;-71
2022/06/17 04:43:47;;;;;;;6.15;5.55;;;;;;;22.44;45.65;102328.91;2085728;28;20041;-71
2022/06/17 04:44:54;;;;;;;6.00;4.90;;;;;;;22.93;45.47;102327.31;2094118;28;20920;-70
2022/06/17 04:46:08;;;;;;;8.27;6.05;;;;;;;23.16;43.70;102331.59;2095976;28;20739;-72
2022/06/17 04:47:14;;;;;;;5.95;5.38;;;;;;;23.02;41.67;102332.28;2090559;28;20184;-70
2022/06/17 04:48:20;;;;;;;6.00;5.40;;;;;;;23.06;42.76;102325.75;2087683;28;20053;-70
2022/06/17 04:49:30;;;;;;;6.05;4.97;;;;;;;23.16;44.84;102321.53;2079672;28;20042;-70
2022/06/17 04:50:32;;;;;;;5.63;5.07;;;;;;;23.86;43.37;102324.09;2080567;28;20807;-70
2022/06/17 04:51:38;;;;;;;5.85;5.22;;;;;;;23.95;42.02;102331.75;2080652;28;20077;-71
2022/06/17 04:52:49;;;;;;;6.75;5.75;;;;;;;23.34;41.89;102329.72;2080872;28;20113;-71
2022/06/17 04:54:06;;;;;;;8.82;5.63;;;;;;;23.77;41.28;102330.94;2090445;28;20131;-70
2022/06/17 04:55:38;;;;;;;6.22;5.50;;;;;;;23.59;40.97;102332.84;2095126;28;20057;-71
2022/06/17 04:56:50;;;;;;;6.75;6.00;;;;;;;23.76;42.09;102333.75;2096324;28;20079;-71
2022/06/17 04:57:59;;;;;;;5.78;4.93;;;;;;;24.47;39.67;102325.09;2087885;28;20041;-70
2022/06/17 04:59:22;;;;;;;6.32;5.00;;;;;;;24.76;39.60;102323.38;2089048;28;20126;-70
2022/06/17 05:00:28;;;;;;;5.40;4.90;;;;;;;25.03;39.06;102322.63;2090452;28;20045;-71
2022/06/17 05:01:33;;;;;;;6.43;5.18;;;;;;;25.09;38.29;102330.50;2088513;28;21076;-70
2022/06/17 05:02:44;;;;;;;6.95;5.03;;;;;;;25.28;38.91;102330.22;2089118;28;20041;-71
2022/06/17 05:04:02;;;;;;;6.47;4.95;;;;;;;25.36;37.25;102332.50;2089628;28;21015;-70
2022/06/17 05:05:21;;;;;;;6.72;4.80;;;;;;;25.18;38.21;102334.50;2089333;28;20127;-71
2022/06/17 05:06:23;;;;;;;8.20;5.45;;;;;;;25.08;39.33;102334.19;2090856;28;20041;-71
2022/06/17 05:07:42;;;;;;;7.32;5.07;;;;;;;25.41;39.14;102332.19;2089286;28;20038;-71
2022/06/17 05:09:21;;;;;;;6.45;5.20;;;;;;;26.22;37.04;102332.41;2092787;28;20135;-71
2022/06/17 05:10:35;;;;;;;9.23;5.03;;;;;;;25.83;36.38;102325.81;2090580;28;20936;-71
2022/06/17 05:11:43;;;;;;;5.97;5.22;;;;;;;25.44;38.75;102329.25;2096112;28;20144;-71
2022/06/17 05:13:15;;;;;;;6.95;4.97;;;;;;;25.87;38.40;102321.88;2097494;28;20960;-71
2022/06/17 05:14:44;;;;;;;5.85;4.68;;;;;;;25.67;36.32;102330.53;2095630;28;20096;-71
2022/06/17 05:15:47;;;;;;;5.50;4.70;;;;;;;26.23;36.30;102331.41;2090447;28;20188;-70
2022/06/17 05:16:51;;;;;;;5.53;4.93;;;;;;;25.79;36.75;102323.34;2095871;28;20175;-71
2022/06/17 05:18:02;;;;;;;5.93;5.32;;;;;;;25.62;36.85;102325.31;2089079;28;20041;-71
2022/06/17 05:19:04;;;;;;;7.45;4.97;;;;;;;26.24;36.78;102319.44;2087698;28;20100;-71
2022/06/17 05:20:14;;;;;;;6.15;5.30;;;;;;;26.28;35.03;102325.63;2078757;28;20038;-71
2022/06/17 05:21:20;;;;;;;7.70;4.30;;;;;;;26.63;35.35;102325.09;2096013;28;20044;-71
2022/06/17 05:22:37;;;;;;;6.93;5.28;;;;;;;27.04;33.70;102324.06;2096806;28;20041;-71
2022/06/17 05:23:39;;;;;;;8.07;5.00;;;;;;;26.71;34.32;102322.69;2096138;28;20076;-71
2022/06/17 05:24:43;;;;;;;7.93;5.40;;;;;;;26.64;34.55;102330.47;2096271;28;20041;-71
2022/06/17 05:25:49;;;;;;;6.50;4.78;;;;;;;27.20;33.55;102323.84;2087525;28;20045;-71
2022/06/17 05:26:53;;;;;;;6.97;4.15;;;;;;;27.79;33.87;102317.75;2088828;28;20107;-71
2022/06/17 05:28:00;;;;;;;7.82;4.50;;;;;;;28.58;32.18;102320.13;2097033;28;20940;-71
2022/06/17 05:29:02;;;;;;;5.75;5.18;;;;;;;27.38;33.54;102319.78;2104255;28;20037;-70
2022/06/17 05:30:11;;;;;;;5.30;4.68;;;;;;;28.29;32.43;102312.22;2095154;28;20906;-71
2022/06/17 05:31:19;;;;;;;6.85;4.70;;;;;;;28.50;32.45;102310.56;2096759;28;21078;-71
2022/06/17 05:32:25;;;;;;;9.15;4.72;;;;;;;28.50;32.74;102321.56;2087738;28;20034;-70
2022/06/17 05:33:28;;;;;;;7.03;3.90;;;;;;;29.07;31.56;102319.00;2088979;28;20037;-70
2022/06/17 05:34:30;;;;;;;5.53;4.60;;;;;;;28.64;31.81;102312.28;2095282;28;20049;-72
2022/06/17 05:35:35;;;;;;;5.97;5.18;;;;;;;28.48;31.65;102307.03;2095716;28;20048;-71
2022/06/17 05:36:37;;;;;;;4.95;4.28;;;;;;;28.78;31.43;102302.91;2095676;28;20041;-70
2022/06/17 05:37:39;;;;;;;8.20;4.50;;;;;;;28.98;31.72;102304.06;2095966;28;20123;-70